createdAt,value
2023-05-06T00:01:11.134Z,99629.50
2023-05-06T00:03:39.189Z,99625.13
2023-05-06T00:06:09.170Z,99618.69
2023-05-06T00:08:36.639Z,99613.41
2023-05-06T00:11:03.820Z,99612.34
2023-05-06T00:13:31.619Z,99610.63
2023-05-06T00:15:59.011Z,99618.41
2023-05-06T00:18:26.229Z,99621.13
2023-05-06T00:20:53.596Z,99622.59
2023-05-06T00:23:20.769Z,99621.56
2023-05-06T00:25:47.894Z,99634.03
2023-05-06T00:28:15.356Z,99621.13
2023-05-06T00:30:42.493Z,99613.94
2023-05-06T00:33:10.057Z,99619.06
2023-05-06T00:35:37.298Z,99625.22
2023-05-06T00:38:09.770Z,99622.09
2023-05-06T00:40:37.590Z,99625.78
2023-05-06T00:43:04.726Z,99627.56
2023-05-06T00:45:32.669Z,99623.56
2023-05-06T00:48:00.039Z,99623.56
2023-05-06T00:50:32.634Z,99629.06
2023-05-06T00:53:00.512Z,99636.69
2023-05-06T00:55:28.084Z,99632.94
2023-05-06T00:57:55.237Z,99630.09
2023-05-06T01:00:22.557Z,99629.41
2023-05-06T01:02:50.737Z,99627.28
2023-05-06T01:05:18.414Z,99623.59
2023-05-06T01:08:04.928Z,99636.97
2023-05-06T01:10:52.480Z,99627.91
2023-05-06T01:13:37.032Z,99637.84
2023-05-06T01:16:04.867Z,99631.28
2023-05-06T01:18:33.243Z,99635.06
2023-05-06T01:21:01.575Z,99628.16
2023-05-06T01:23:29.264Z,99623.13
2023-05-06T01:25:56.457Z,99618.56
2023-05-06T01:28:24.172Z,99618.03
2023-05-06T01:31:23.614Z,99617.63
2023-05-06T01:33:56.694Z,99625.63
2023-05-06T01:36:32.892Z,99627.63
2023-05-06T01:39:17.923Z,99622.72
2023-05-06T01:41:46.385Z,99611.63
2023-05-06T01:44:13.644Z,99614.19
2023-05-06T01:46:41.201Z,99610.91
2023-05-06T01:49:11.118Z,99603.75
2023-05-06T01:51:38.283Z,99605.25
2023-05-06T01:54:05.747Z,99598.22
2023-05-06T01:56:32.944Z,99603.81
2023-05-06T01:59:00.669Z,99604.91
2023-05-06T02:01:27.866Z,99599.75
2023-05-06T02:03:55.759Z,99592.13
2023-05-06T02:06:23.072Z,99598.19
2023-05-06T02:08:50.775Z,99591.91
2023-05-06T02:11:21.501Z,99593.16
2023-05-06T02:13:51.251Z,99591.81
2023-05-06T02:16:18.817Z,99586.34
2023-05-06T02:18:47.172Z,99583.16
2023-05-06T02:21:14.795Z,99583.84
2023-05-06T02:23:43.116Z,99580.19
2023-05-06T02:26:10.352Z,99574.56
2023-05-06T02:28:37.515Z,99571.97
2023-05-06T02:31:04.911Z,99568.16
2023-05-06T02:33:32.391Z,99566.03
2023-05-06T02:35:59.581Z,99579.78
2023-05-06T02:38:26.968Z,99568.44
2023-05-06T02:40:54.450Z,99569.03
2023-05-06T02:48:53.432Z,99575.06
2023-05-06T02:51:20.713Z,99565.03
2023-05-06T02:53:48.029Z,99561.94
2023-05-06T02:56:15.553Z,99569.00
2023-05-06T02:58:42.903Z,99563.13
2023-05-06T03:01:10.508Z,99569.41
2023-05-06T03:03:37.567Z,99568.88
2023-05-06T03:06:04.896Z,99567.25
2023-05-06T03:08:32.526Z,99563.81
2023-05-06T03:11:00.702Z,99562.31
2023-05-06T03:13:28.142Z,99555.97
2023-05-06T03:15:55.628Z,99555.75
2023-05-06T03:18:24.085Z,99545.03
2023-05-06T03:20:51.550Z,99540.75
2023-05-06T03:23:19.469Z,99537.75
2023-05-06T03:25:47.422Z,99529.09
2023-05-06T03:28:15.225Z,99522.72
2023-05-06T03:30:44.617Z,99526.66
2023-05-06T03:33:12.696Z,99521.41
2023-05-06T03:35:40.082Z,99519.53
2023-05-06T03:38:07.425Z,99514.91
2023-05-06T03:40:45.139Z,99515.03
2023-05-06T03:43:14.659Z,99504.69
2023-05-06T03:45:43.465Z,99509.25
2023-05-06T03:48:10.870Z,99514.63
2023-05-06T03:50:42.269Z,99509.78
2023-05-06T03:53:09.603Z,99517.66
2023-05-06T03:55:40.201Z,99512.13
2023-05-06T03:58:07.526Z,99504.69
2023-05-06T04:00:34.960Z,99505.53
2023-05-06T04:03:02.842Z,99498.66
2023-05-06T04:05:36.579Z,99499.94
2023-05-06T04:08:04.443Z,99499.38
2023-05-06T04:10:32.032Z,99500.25
2023-05-06T04:13:07.349Z,99501.69
2023-05-06T04:15:41.608Z,99502.53
2023-05-06T04:18:18.638Z,99502.78
2023-05-06T04:20:53.720Z,99495.06
2023-05-06T04:23:21.789Z,99492.59
2023-05-06T04:25:50.229Z,99487.78
2023-05-06T04:28:19.938Z,99477.78
2023-05-06T04:30:50.673Z,99482.94
2023-05-06T04:33:19.486Z,99484.16
2023-05-06T04:35:54.515Z,99485.94
2023-05-06T04:38:22.562Z,99476.28
2023-05-06T04:40:50.557Z,99481.94
2023-05-06T04:43:18.019Z,99477.78
2023-05-06T04:45:50.518Z,99475.22
2023-05-06T04:48:22.850Z,99471.59
2023-05-06T04:50:51.825Z,99471.72
2023-05-06T04:53:19.400Z,99466.59
2023-05-06T04:55:46.821Z,99456.78
2023-05-06T04:58:14.597Z,99446.47
2023-05-06T05:00:42.223Z,99447.44
2023-05-06T05:03:09.627Z,99446.47
2023-05-06T05:05:37.504Z,99445.50
2023-05-06T05:08:13.344Z,99436.47
2023-05-06T05:10:43.959Z,99430.25
2023-05-06T05:13:14.852Z,99438.78
2023-05-06T05:15:43.767Z,99430.22
2023-05-06T05:18:13.367Z,99424.06
2023-05-06T05:20:42.164Z,99416.66
2023-05-06T05:23:12.311Z,99415.59
2023-05-06T05:25:39.715Z,99403.50
2023-05-06T05:28:07.278Z,99406.00
2023-05-06T05:30:35.830Z,99396.78
2023-05-06T05:33:03.189Z,99394.72
2023-05-06T05:35:30.556Z,99391.75
2023-05-06T05:37:58.642Z,99394.19
2023-05-06T05:40:26.283Z,99393.16
2023-05-06T05:42:55.114Z,99388.50
2023-05-06T05:45:28.376Z,99389.34
2023-05-06T05:47:56.578Z,99381.34
2023-05-06T05:50:26.089Z,99383.84
2023-05-06T05:52:54.383Z,99373.75
2023-05-06T05:55:22.780Z,99363.63
2023-05-06T05:57:51.419Z,99366.09
2023-05-06T06:00:21.429Z,99361.09
2023-05-06T06:02:55.191Z,99363.81
2023-05-06T06:05:22.962Z,99358.22
2023-05-06T06:07:51.227Z,99353.00
2023-05-06T06:10:18.493Z,99350.03
2023-05-06T06:12:46.074Z,99351.66
2023-05-06T06:15:18.406Z,99349.97
2023-05-06T06:17:46.357Z,99348.00
2023-05-06T06:20:13.849Z,99340.50
2023-05-06T06:22:41.623Z,99341.00
2023-05-06T06:25:09.850Z,99337.34
2023-05-06T06:27:38.032Z,99339.53
2023-05-06T06:30:07.287Z,99325.44
2023-05-06T06:32:34.560Z,99323.28
2023-05-06T06:35:02.184Z,99315.84
2023-05-06T06:37:30.027Z,99316.88
2023-05-06T06:39:57.394Z,99316.28
2023-05-06T06:42:24.537Z,99310.50
2023-05-06T06:45:08.384Z,99308.56
2023-05-06T06:47:35.866Z,99302.19
2023-05-06T06:50:03.368Z,99300.25
2023-05-06T06:52:30.970Z,99292.56
2023-05-06T06:54:57.977Z,99290.91
2023-05-06T06:57:25.839Z,99294.19
2023-05-06T06:59:53.407Z,99293.09
2023-05-06T07:02:21.200Z,99291.41
2023-05-06T07:04:48.620Z,99291.09
2023-05-06T07:07:16.230Z,99291.09
2023-05-06T07:09:43.904Z,99282.53
2023-05-06T07:12:11.130Z,99286.13
2023-05-06T07:14:38.479Z,99275.59
2023-05-06T07:17:05.782Z,99265.94
2023-05-06T07:19:33.364Z,99269.53
2023-05-06T07:22:01.005Z,99268.41
2023-05-06T07:24:28.580Z,99275.88
2023-05-06T07:26:56.276Z,99264.88
2023-05-06T07:29:23.498Z,99257.72
2023-05-06T07:31:50.524Z,99250.78
2023-05-06T07:34:17.840Z,99253.28
2023-05-06T07:36:45.298Z,99245.22
2023-05-06T07:39:13.575Z,99242.19
2023-05-06T07:41:41.070Z,99240.25
2023-05-06T07:44:08.497Z,99242.41
2023-05-06T07:46:35.669Z,99239.34
2023-05-06T07:49:03.048Z,99244.03
2023-05-06T07:51:31.727Z,99232.19
2023-05-06T07:53:59.130Z,99235.53
2023-05-06T07:56:26.214Z,99228.69
2023-05-06T07:58:54.145Z,99222.06
2023-05-06T08:01:21.218Z,99223.09
2023-05-06T08:03:48.319Z,99216.16
2023-05-06T08:06:15.689Z,99221.97
2023-05-06T08:08:42.837Z,99218.69
2023-05-06T08:11:10.167Z,99214.00
2023-05-06T08:13:37.343Z,99208.41
2023-05-06T08:16:06.388Z,99213.63
2023-05-06T08:18:33.639Z,99209.47
2023-05-06T08:21:01.131Z,99206.72
2023-05-06T08:23:28.148Z,99200.09
2023-05-06T08:25:55.815Z,99200.91
2023-05-06T08:28:24.661Z,99187.41
2023-05-06T08:30:53.096Z,99186.03
2023-05-06T08:33:20.851Z,99184.34
2023-05-06T08:35:50.421Z,99179.06
2023-05-06T08:38:17.673Z,99175.25
2023-05-06T08:40:44.855Z,99180.19
2023-05-06T08:43:13.898Z,99174.88
2023-05-06T08:45:41.689Z,99170.38
2023-05-06T08:48:09.304Z,99171.50
2023-05-06T08:50:38.554Z,99176.50
2023-05-06T08:53:05.672Z,99163.03
2023-05-06T08:55:32.926Z,99166.59
2023-05-06T08:58:00.602Z,99166.59
2023-05-06T09:00:27.729Z,99174.28
2023-05-06T09:02:55.021Z,99168.19
2023-05-06T09:05:22.104Z,99161.53
2023-05-06T09:07:49.165Z,99162.28
2023-05-06T09:10:18.736Z,99164.13
2023-05-06T09:12:46.433Z,99157.09
2023-05-06T09:15:13.978Z,99162.31
2023-05-06T09:17:41.638Z,99152.63
2023-05-06T09:20:11.476Z,99155.25
2023-05-06T09:22:40.512Z,99153.50
2023-05-06T09:25:07.919Z,99154.53
2023-05-06T09:27:36.777Z,99153.50
2023-05-06T09:30:08.586Z,99150.53
2023-05-06T09:32:38.299Z,99148.63
2023-05-06T09:35:07.188Z,99142.25
2023-05-06T09:37:34.309Z,99141.34
2023-05-06T09:40:01.868Z,99145.13
2023-05-06T09:42:30.507Z,99144.50
2023-05-06T09:45:01.656Z,99134.84
2023-05-06T09:47:35.398Z,99131.16
2023-05-06T09:50:03.278Z,99137.59
2023-05-06T09:52:32.401Z,99128.63
2023-05-06T09:55:00.193Z,99134.03
2023-05-06T09:57:27.852Z,99137.63
2023-05-06T09:59:55.240Z,99138.13
2023-05-06T10:02:23.588Z,99134.16
2023-05-06T10:04:51.507Z,99135.78
2023-05-06T10:07:22.317Z,99137.31
2023-05-06T10:09:51.184Z,99129.84
2023-05-06T10:12:18.629Z,99118.59
2023-05-06T10:14:46.231Z,99125.13
2023-05-06T10:17:13.940Z,99125.13
2023-05-06T10:19:42.665Z,99124.13
2023-05-06T10:22:22.916Z,99125.25
2023-05-06T10:24:59.001Z,99118.78
2023-05-06T10:27:26.067Z,99127.38
2023-05-06T10:29:59.128Z,99121.44
2023-05-06T10:32:26.992Z,99125.50
2023-05-06T10:34:55.202Z,99130.31
2023-05-06T10:37:25.626Z,99125.72
2023-05-06T10:39:54.064Z,99132.56
2023-05-06T10:42:23.937Z,99124.56
2023-05-06T10:45:01.098Z,99121.34
2023-05-06T10:47:28.493Z,99124.50
2023-05-06T10:50:22.392Z,99126.28
2023-05-06T10:52:55.193Z,99111.78
2023-05-06T10:55:29.523Z,99120.69
2023-05-06T10:58:15.166Z,99119.97
2023-05-06T11:00:43.024Z,99114.63
2023-05-06T11:03:11.762Z,99115.13
2023-05-06T11:05:49.421Z,99118.19
2023-05-06T11:08:25.351Z,99120.13
2023-05-06T11:10:53.624Z,99117.28
2023-05-06T11:13:23.526Z,99112.41
2023-05-06T11:15:51.794Z,99119.25
2023-05-06T11:18:26.106Z,99119.25
2023-05-06T11:21:03.177Z,99107.72
2023-05-06T11:23:43.182Z,99117.63
2023-05-06T11:26:11.388Z,99112.72
2023-05-06T11:28:50.461Z,99119.78
2023-05-06T11:31:18.073Z,99116.19
2023-05-06T11:33:48.944Z,99119.25
2023-05-06T11:36:20.561Z,99116.59
2023-05-06T11:38:49.689Z,99115.38
2023-05-06T11:41:17.389Z,99113.00
2023-05-06T11:43:51.340Z,99108.34
2023-05-06T11:46:23.259Z,99112.81
2023-05-06T11:48:50.989Z,99117.59
2023-05-06T11:51:24.938Z,99112.16
2023-05-06T11:53:54.121Z,99106.25
2023-05-06T11:56:21.670Z,99105.72
2023-05-06T11:58:48.812Z,99110.63
2023-05-06T12:01:16.129Z,99110.69
2023-05-06T12:03:43.779Z,99108.25
2023-05-06T12:06:12.681Z,99107.44
2023-05-06T12:08:40.108Z,99112.72
2023-05-06T12:11:08.039Z,99113.00
2023-05-06T12:13:38.806Z,99104.75
2023-05-06T12:16:07.518Z,99118.56
2023-05-06T12:18:35.047Z,99118.41
2023-05-06T12:21:07.097Z,99108.78
2023-05-06T12:23:34.253Z,99114.84
2023-05-06T12:26:03.728Z,99113.06
2023-05-06T12:28:31.846Z,99110.63
2023-05-06T12:30:59.453Z,99110.16
2023-05-06T12:33:26.809Z,99117.38
2023-05-06T12:35:56.741Z,99107.03
2023-05-06T12:38:24.219Z,99112.59
2023-05-06T12:40:55.090Z,99107.72
2023-05-06T12:43:32.641Z,99117.66
2023-05-06T12:46:07.251Z,99114.69
2023-05-06T12:48:34.684Z,99119.41
2023-05-06T12:51:12.486Z,99124.38
2023-05-06T12:53:40.152Z,99122.25
2023-05-06T12:56:07.471Z,99117.34
2023-05-06T12:58:37.695Z,99116.56
2023-05-06T13:01:04.835Z,99115.78
2023-05-06T13:03:32.258Z,99119.66
2023-05-06T13:05:59.727Z,99125.16
2023-05-06T13:08:27.849Z,99116.91
2023-05-06T13:10:55.194Z,99128.44
2023-05-06T13:13:22.581Z,99120.72
2023-05-06T13:15:53.054Z,99124.28
2023-05-06T13:18:20.153Z,99119.13
2023-05-06T13:20:47.426Z,99128.78
2023-05-06T13:23:15.212Z,99122.75
2023-05-06T13:25:56.339Z,99123.03
2023-05-06T13:28:32.022Z,99125.53
2023-05-06T13:30:59.189Z,99126.91
2023-05-06T13:33:26.598Z,99121.22
2023-05-06T13:35:53.672Z,99119.88
2023-05-06T13:38:20.823Z,99127.28
2023-05-06T13:40:51.880Z,99116.88
2023-05-06T13:43:24.407Z,99130.59
2023-05-06T13:45:52.921Z,99129.25
2023-05-06T13:48:19.960Z,99136.41
2023-05-06T13:50:47.837Z,99136.69
2023-05-06T13:53:15.065Z,99143.31
2023-05-06T13:55:43.061Z,99136.97
2023-05-06T13:58:10.726Z,99135.09
2023-05-06T14:00:38.743Z,99140.84
2023-05-06T14:03:07.148Z,99140.84
2023-05-06T14:05:34.605Z,99145.78
2023-05-06T14:08:02.048Z,99142.47
2023-05-06T14:10:29.505Z,99149.88
2023-05-06T14:12:57.321Z,99150.16
2023-05-06T14:15:24.946Z,99151.00
2023-05-06T14:17:52.039Z,99155.34
2023-05-06T14:20:19.212Z,99157.00
2023-05-06T14:22:48.374Z,99152.63
2023-05-06T14:25:15.462Z,99140.81
2023-05-06T14:27:42.767Z,99153.69
2023-05-06T14:30:10.578Z,99147.13
2023-05-06T14:32:38.341Z,99149.59
2023-05-06T14:35:05.914Z,99153.69
2023-05-06T14:37:33.144Z,99144.63
2023-05-06T14:40:00.941Z,99149.25
2023-05-06T14:42:28.370Z,99159.06
2023-05-06T14:44:55.552Z,99150.84
2023-05-06T14:47:23.311Z,99156.28
2023-05-06T14:49:50.466Z,99155.94
2023-05-06T14:52:17.835Z,99152.88
2023-05-06T14:54:45.162Z,99162.41
2023-05-06T14:57:12.523Z,99157.41
2023-05-06T14:59:39.845Z,99157.84
2023-05-06T15:02:08.620Z,99155.66
2023-05-06T15:04:36.383Z,99159.13
2023-05-06T15:07:03.615Z,99156.06
2023-05-06T15:09:31.102Z,99151.06
2023-05-06T15:11:58.450Z,99160.59
2023-05-06T15:14:25.831Z,99163.31
2023-05-06T15:16:56.240Z,99163.06
2023-05-06T15:19:23.863Z,99163.06
2023-05-06T15:21:51.327Z,99157.25
2023-05-06T15:24:18.431Z,99153.66
2023-05-06T15:26:46.051Z,99158.84
2023-05-06T15:29:13.503Z,99171.66
2023-05-06T15:31:43.414Z,99154.84
2023-05-06T15:34:11.164Z,99151.97
2023-05-06T15:36:39.800Z,99161.94
2023-05-06T15:39:07.129Z,99163.81
2023-05-06T15:41:35.700Z,99160.25
2023-05-06T15:44:03.477Z,99164.06
2023-05-06T15:46:31.274Z,99152.50
2023-05-06T15:49:17.852Z,99155.09
2023-05-06T15:51:46.003Z,99157.75
2023-05-06T15:54:13.270Z,99162.00
2023-05-06T15:56:41.573Z,99159.22
2023-05-06T15:59:09.225Z,99165.44
2023-05-06T16:02:19.001Z,99166.81
2023-05-06T16:04:24.649Z,99164.94
2023-05-06T16:06:51.923Z,99173.38
2023-05-06T16:09:19.300Z,99169.25
2023-05-06T16:11:46.457Z,99174.03
2023-05-06T16:14:13.493Z,99177.72
2023-05-06T16:16:41.059Z,99169.66
2023-05-06T16:19:09.450Z,99172.72
2023-05-06T16:21:36.834Z,99178.84
2023-05-06T16:24:03.981Z,99176.81
2023-05-06T16:26:31.399Z,99174.72
2023-05-06T16:28:59.585Z,99171.13
2023-05-06T16:31:27.052Z,99168.78
2023-05-06T16:33:54.353Z,99174.06
2023-05-06T16:36:22.342Z,99178.63
2023-05-06T16:38:49.752Z,99179.88
2023-05-06T16:41:16.829Z,99184.38
2023-05-06T16:43:43.874Z,99178.78
2023-05-06T16:46:11.354Z,99181.88
2023-05-06T16:48:38.745Z,99179.31
2023-05-06T16:51:06.538Z,99189.47
2023-05-06T16:53:33.782Z,99185.53
2023-05-06T16:56:03.079Z,99191.09
2023-05-06T16:58:30.153Z,99196.34
2023-05-06T17:00:57.366Z,99194.47
2023-05-06T17:03:24.564Z,99191.53
2023-05-06T17:05:54.390Z,99189.69
2023-05-06T17:08:22.989Z,99190.53
2023-05-06T17:10:51.608Z,99193.38
2023-05-06T17:13:18.946Z,99190.06
2023-05-06T17:15:46.155Z,99196.56
2023-05-06T17:18:13.893Z,99198.94
2023-05-06T17:20:54.547Z,99195.66
2023-05-06T17:23:22.956Z,99201.31
2023-05-06T17:25:50.866Z,99199.09
2023-05-06T17:28:18.834Z,99198.47
2023-05-06T17:30:46.628Z,99204.03
2023-05-06T17:33:14.175Z,99200.25
2023-05-06T17:35:41.168Z,99194.56
2023-05-06T17:38:11.050Z,99199.50
2023-05-06T17:40:38.459Z,99204.25
2023-05-06T17:43:05.637Z,99203.50
2023-05-06T17:45:33.030Z,99206.94
2023-05-06T17:48:00.349Z,99204.44
2023-05-06T17:50:27.375Z,99199.97
2023-05-06T17:52:55.182Z,99213.97
2023-05-06T17:55:22.532Z,99202.78
2023-05-06T17:57:51.435Z,99205.25
2023-05-06T18:00:19.055Z,99204.19
2023-05-06T18:02:47.024Z,99201.94
2023-05-06T18:05:14.630Z,99207.72
2023-05-06T18:07:42.273Z,99204.97
2023-05-06T18:10:10.216Z,99196.78
2023-05-06T18:12:37.549Z,99199.38
2023-05-06T18:15:05.736Z,99199.00
2023-05-06T18:17:33.894Z,99195.06
2023-05-06T18:20:01.473Z,99199.53
2023-05-06T18:22:28.766Z,99194.00
2023-05-06T18:24:56.525Z,99192.78
2023-05-06T18:27:24.014Z,99191.59
2023-05-06T18:29:51.246Z,99189.56
2023-05-06T18:32:18.721Z,99200.06
2023-05-06T18:34:46.138Z,99203.41
2023-05-06T18:37:13.552Z,99200.13
2023-05-06T18:39:45.103Z,99205.59
2023-05-06T18:42:12.474Z,99198.34
2023-05-06T18:44:39.723Z,99207.19
2023-05-06T18:47:07.231Z,99199.97
2023-05-06T18:49:35.205Z,99204.38
2023-05-06T18:52:02.410Z,99197.31
2023-05-06T18:54:29.719Z,99191.28
2023-05-06T18:56:58.246Z,99195.88
2023-05-06T18:59:26.373Z,99194.00
2023-05-06T19:01:53.783Z,99205.06
2023-05-06T19:04:21.175Z,99194.47
2023-05-06T19:06:48.477Z,99193.69
2023-05-06T19:09:15.882Z,99191.06
2023-05-06T19:11:42.974Z,99194.47
2023-05-06T19:14:10.189Z,99191.38
2023-05-06T19:16:37.445Z,99187.81
2023-05-06T19:19:07.825Z,99178.84
2023-05-06T19:21:35.552Z,99182.38
2023-05-06T19:24:03.444Z,99186.84
2023-05-06T19:26:30.801Z,99178.78
2023-05-06T19:28:58.278Z,99183.16
2023-05-06T19:31:25.762Z,99184.66
2023-05-06T19:33:53.200Z,99169.28
2023-05-06T19:36:20.840Z,99182.69
2023-05-06T19:38:48.192Z,99191.41
2023-05-06T19:41:15.965Z,99195.16
2023-05-06T19:43:44.003Z,99189.78
2023-05-06T19:46:11.585Z,99191.50
2023-05-06T19:48:38.882Z,99188.88
2023-05-06T19:51:06.817Z,99185.16
2023-05-06T19:53:34.113Z,99191.03
2023-05-06T19:56:11.963Z,99186.28
2023-05-06T19:58:40.246Z,99194.44
2023-05-06T20:01:07.420Z,99191.34
2023-05-06T20:03:35.011Z,99185.78
2023-05-06T20:06:02.769Z,99184.16
2023-05-06T20:08:30.825Z,99190.00
2023-05-06T20:10:57.999Z,99190.19
2023-05-06T20:13:25.652Z,99200.19
2023-05-06T20:15:53.910Z,99193.13
2023-05-06T20:18:21.013Z,99196.50
2023-05-06T20:20:48.241Z,99198.78
2023-05-06T20:23:15.941Z,99205.91
2023-05-06T20:25:43.388Z,99208.44
2023-05-06T20:28:10.894Z,99221.56
2023-05-06T20:30:38.877Z,99211.38
2023-05-06T20:33:07.404Z,99217.66
2023-05-06T20:35:38.291Z,99212.50
2023-05-06T20:38:06.518Z,99216.47
2023-05-06T20:40:35.248Z,99214.03
2023-05-06T20:43:02.797Z,99222.75
2023-05-06T20:45:30.978Z,99215.50
2023-05-06T20:47:58.670Z,99221.56
2023-05-06T20:50:28.195Z,99227.19
2023-05-06T20:52:55.403Z,99225.97
2023-05-06T20:55:24.544Z,99224.53
2023-05-06T20:57:51.842Z,99230.78
2023-05-06T21:00:19.289Z,99230.00
2023-05-06T21:02:46.508Z,99222.72
2023-05-06T21:05:14.116Z,99218.59
2023-05-06T21:07:41.584Z,99222.72
2023-05-06T21:10:09.898Z,99217.97
2023-05-06T21:12:37.606Z,99236.25
2023-05-06T21:15:05.887Z,99237.50
2023-05-06T21:17:34.102Z,99237.50
2023-05-06T21:20:03.532Z,99243.34
2023-05-06T21:22:32.885Z,99238.53
2023-05-06T21:24:59.972Z,99235.63
2023-05-06T21:27:27.275Z,99237.09
2023-05-06T21:29:54.646Z,99234.81
2023-05-06T21:32:21.781Z,99229.59
2023-05-06T21:34:49.151Z,99229.00
2023-05-06T21:37:16.242Z,99231.88
2023-05-06T21:39:43.383Z,99226.47
2023-05-06T21:42:11.039Z,99222.31
2023-05-06T21:44:38.275Z,99231.66
2023-05-06T21:47:05.612Z,99237.50
2023-05-06T21:49:33.002Z,99243.72
2023-05-06T21:52:00.993Z,99243.09
2023-05-06T21:54:28.340Z,99243.47
2023-05-06T21:56:55.669Z,99246.38
2023-05-06T21:59:22.668Z,99239.53
2023-05-06T22:01:49.731Z,99238.94
2023-05-06T22:04:18.798Z,99248.88
2023-05-06T22:06:46.115Z,99256.16
2023-05-06T22:09:13.758Z,99249.31
2023-05-06T22:11:40.769Z,99250.34
2023-05-06T22:14:08.537Z,99245.78
2023-05-06T22:16:37.575Z,99246.41
2023-05-06T22:19:06.679Z,99249.94
2023-05-06T22:21:35.118Z,99254.69
2023-05-06T22:24:02.021Z,99249.72
2023-05-06T22:26:29.225Z,99243.72
2023-05-06T22:28:56.762Z,99253.03
2023-05-06T22:31:24.898Z,99249.75
2023-05-06T22:33:55.035Z,99250.16
2023-05-06T22:36:22.750Z,99254.53
2023-05-06T22:38:50.160Z,99250.38
2023-05-06T22:41:18.017Z,99253.72
2023-05-06T22:43:45.288Z,99249.94
2023-05-06T22:46:12.811Z,99257.19
2023-05-06T22:48:40.735Z,99261.84
2023-05-06T22:51:07.854Z,99260.88
2023-05-06T22:53:35.151Z,99268.78
2023-05-06T22:56:02.338Z,99260.75
2023-05-06T22:58:30.420Z,99256.94
2023-05-06T23:00:57.597Z,99264.34
2023-05-06T23:03:24.771Z,99264.09
2023-05-06T23:05:52.449Z,99271.94
2023-05-06T23:08:19.851Z,99276.13
2023-05-06T23:10:47.069Z,99270.81
2023-05-06T23:13:14.440Z,99275.13
2023-05-06T23:15:42.061Z,99271.81
2023-05-06T23:18:14.698Z,99270.47
2023-05-06T23:20:43.962Z,99266.34
2023-05-06T23:23:11.402Z,99277.13
2023-05-06T23:25:38.817Z,99271.19
2023-05-06T23:28:05.927Z,99277.47
2023-05-06T23:30:33.103Z,99272.78
2023-05-06T23:33:01.065Z,99268.41
2023-05-06T23:35:28.720Z,99265.09
2023-05-06T23:37:56.405Z,99271.31
2023-05-06T23:40:23.518Z,99269.16
2023-05-06T23:42:50.538Z,99265.97
2023-05-06T23:45:19.747Z,99276.19
2023-05-06T23:47:46.887Z,99266.47
2023-05-06T23:50:14.865Z,99261.63
2023-05-06T23:52:42.046Z,99266.09
2023-05-06T23:55:09.935Z,99261.19
2023-05-06T23:57:37.613Z,99264.78
